Holt, Alabama
Current Conditions -  °F | °C
As of 4:53 AM on Friday 28 Nov 2014 (Local Time) from KTCL Reporting Station
Clear Clear  
Wind Chill: 29°   Ceiling: Unl
Heat Index: 29°   Visibility: 9mi
Dew Point: 25°   Wind: 0mph
Humidity: 85%   Direction: NA
Pressure: 30.46"   Gusts: NA
Location:  33.2198°N, 87.4638°W
Report Text: KTCL 281053Z AUTO 00000KT 9SM CLR M02/M04 A3046 RMK AO2 SLP316 T10171039
Loading
Personal Weather Stations






























Interactive Weather Map New forecast layout! Learn more

10-Day Weather Forecast

Advertisements
Track Severe Weather on mobile